Time;durP1;ratioP1;P1;durP2;ratioP2;P2;SDS_P1;SDS_P2;PMS_P1;PMS_P2;Temp;Humidity;BMP_temperature;BMP_pressure;BME280_temperature;BME280_humidity;BME280_pressure;Samples;Min_cycle;Max_cycle;Signal;HPM_P1;HPM_P2
2024/01/28 00:00:36;;;;;;;;;;;0.40;100.00;;;;;;5044083;28;20467;-68
2024/01/28 00:03:03;;;;;;;;;;;0.40;100.00;;;;;;5045506;28;19954;-68
2024/01/28 00:05:31;;;;;;;;;;;0.40;100.00;;;;;;5044599;28;19929;-68
2024/01/28 00:07:58;;;;;;;;;;;0.40;100.00;;;;;;5043461;28;19936;-68
2024/01/28 00:10:25;;;;;;;;;;;0.60;100.00;;;;;;5045423;28;20022;-68
2024/01/28 00:12:52;;;;;;;;;;;0.60;100.00;;;;;;5045195;28;19937;-68
2024/01/28 00:15:19;;;;;;;;;;;0.60;100.00;;;;;;5044506;28;20049;-68
2024/01/28 00:17:45;;;;;;;;;;;0.60;100.00;;;;;;5045199;28;19935;-68
2024/01/28 00:20:12;;;;;;;;;;;0.60;100.00;;;;;;5043194;28;19941;-68
2024/01/28 00:22:39;;;;;;;;;;;0.70;100.00;;;;;;5044100;28;19929;-68
2024/01/28 00:25:06;;;;;;;;;;;0.70;100.00;;;;;;5044635;28;19975;-68
2024/01/28 00:27:33;;;;;;;;;;;0.80;100.00;;;;;;5044766;28;20486;-68
2024/01/28 00:30:00;;;;;;;;;;;0.70;100.00;;;;;;5044045;28;19948;-68
2024/01/28 00:32:27;;;;;;;;;;;0.70;100.00;;;;;;5045093;28;20411;-68
2024/01/28 00:34:54;;;;;;;;;;;0.60;100.00;;;;;;5045104;28;19983;-68
2024/01/28 00:37:20;;;;;;;;;;;0.60;100.00;;;;;;5045117;28;20586;-68
2024/01/28 00:39:47;;;;;;;;;;;0.50;100.00;;;;;;5043076;28;20432;-68
2024/01/28 00:42:16;;;;;;;;;;;0.50;100.00;;;;;;5043685;28;20002;-68
2024/01/28 00:44:43;;;;;;;;;;;0.60;100.00;;;;;;5045250;28;19935;-68
2024/01/28 00:47:10;;;;;;;;;;;0.60;100.00;;;;;;5043726;28;19967;-68
2024/01/28 00:49:36;;;;;;;;;;;0.60;100.00;;;;;;5045304;28;20016;-68
2024/01/28 00:52:04;;;;;;;;;;;0.60;100.00;;;;;;5042414;28;20019;-68
2024/01/28 00:54:30;;;;;;;;;;;0.60;100.00;;;;;;5044197;28;19928;-72
2024/01/28 00:56:58;;;;;;;;;;;0.60;100.00;;;;;;5048841;28;20362;-68
2024/01/28 00:59:24;;;;;;;;;;;0.50;100.00;;;;;;5047890;28;20696;-68
2024/01/28 01:01:52;;;;;;;;;;;0.50;100.00;;;;;;5048196;28;19974;-68
2024/01/28 01:04:19;;;;;;;;;;;0.50;100.00;;;;;;5047167;28;19925;-68
2024/01/28 01:06:46;;;;;;;;;;;0.50;100.00;;;;;;5047888;28;19948;-68
2024/01/28 01:09:13;;;;;;;;;;;0.40;100.00;;;;;;5046434;28;19933;-68
2024/01/28 01:11:42;;;;;;;;;;;0.40;100.00;;;;;;5046089;28;19928;-68
2024/01/28 01:14:08;;;;;;;;;;;0.40;100.00;;;;;;5047855;28;19933;-68
2024/01/28 01:16:35;;;;;;;;;;;0.40;100.00;;;;;;5079507;28;19929;-68
2024/01/28 01:19:03;;;;;;;;;;;0.40;100.00;;;;;;5047551;28;19929;-68
2024/01/28 01:21:29;;;;;;;;;;;0.30;100.00;;;;;;5047007;28;20006;-67
2024/01/28 01:23:56;;;;;;;;;;;0.30;100.00;;;;;;5045778;28;19937;-68
2024/01/28 01:26:23;;;;;;;;;;;0.30;100.00;;;;;;5042950;28;19990;-68
2024/01/28 01:28:50;;;;;;;;;;;0.30;100.00;;;;;;5047941;28;19964;-67
2024/01/28 01:31:16;;;;;;;;;;;0.30;100.00;;;;;;5047070;28;19982;-68
2024/01/28 01:33:43;;;;;;;;;;;0.30;100.00;;;;;;5047364;28;19929;-68
2024/01/28 01:36:10;;;;;;;;;;;0.20;100.00;;;;;;5047206;28;20402;-68
2024/01/28 01:38:37;;;;;;;;;;;0.20;100.00;;;;;;5047863;28;20011;-67
2024/01/28 01:41:04;;;;;;;;;;;0.10;100.00;;;;;;5047698;28;20042;-68
2024/01/28 01:43:31;;;;;;;;;;;0.00;100.00;;;;;;5046662;28;19933;-68
2024/01/28 01:45:57;;;;;;;;;;;0.00;100.00;;;;;;5045184;28;19929;-68
2024/01/28 01:48:24;;;;;;;;;;;0.00;100.00;;;;;;5046033;28;19932;-68
2024/01/28 01:50:52;;;;;;;;;;;0.00;100.00;;;;;;5045420;28;20771;-68
2024/01/28 01:53:19;;;;;;;;;;;0.00;100.00;;;;;;5045600;28;19929;-68
2024/01/28 01:55:46;;;;;;;;;;;0.00;100.00;;;;;;5047097;28;19935;-68
2024/01/28 01:58:13;;;;;;;;;;;0.00;100.00;;;;;;5047192;28;19998;-68
2024/01/28 02:00:40;;;;;;;;;;;0.00;100.00;;;;;;5047251;28;19933;-68
2024/01/28 02:03:07;;;;;;;;;;;0.00;100.00;;;;;;5045500;28;19933;-68
2024/01/28 02:05:34;;;;;;;;;;;0.00;100.00;;;;;;5046821;28;19935;-68
2024/01/28 02:08:01;;;;;;;;;;;0.00;100.00;;;;;;5047173;28;19925;-68
2024/01/28 02:10:29;;;;;;;;;;;0.00;100.00;;;;;;5045133;28;19928;-67
2024/01/28 02:12:56;;;;;;;;;;;-0.10;100.00;;;;;;5078108;28;20344;-68
2024/01/28 02:15:23;;;;;;;;;;;-0.10;100.00;;;;;;5047094;28;19952;-68
2024/01/28 02:17:50;;;;;;;;;;;-0.10;100.00;;;;;;5043250;28;19933;-68
2024/01/28 02:20:17;;;;;;;;;;;-0.10;100.00;;;;;;5047075;28;19932;-68
2024/01/28 02:22:44;;;;;;;;;;;-0.20;100.00;;;;;;5045292;28;20007;-68
2024/01/28 02:25:10;;;;;;;;;;;-0.20;100.00;;;;;;5046798;28;19939;-72
2024/01/28 02:27:38;;;;;;;;;;;-0.20;100.00;;;;;;5046868;28;19928;-72
2024/01/28 02:30:05;;;;;;;;;;;-0.20;100.00;;;;;;5046523;28;20360;-72
2024/01/28 02:32:32;;;;;;;;;;;-0.30;100.00;;;;;;5046174;28;19929;-72
2024/01/28 02:34:59;;;;;;;;;;;-0.30;100.00;;;;;;5046758;28;20051;-72
2024/01/28 02:37:26;;;;;;;;;;;-0.30;100.00;;;;;;5044248;28;20015;-72
2024/01/28 02:39:53;;;;;;;;;;;-0.40;100.00;;;;;;5046339;28;20598;-72
2024/01/28 02:42:20;;;;;;;;;;;-0.40;100.00;;;;;;5046785;28;19928;-72
2024/01/28 02:44:47;;;;;;;;;;;-0.50;100.00;;;;;;5045305;28;19928;-72
2024/01/28 02:47:13;;;;;;;;;;;-0.50;100.00;;;;;;5041914;28;20087;-72
2024/01/28 02:49:40;;;;;;;;;;;-0.60;100.00;;;;;;5046895;28;20406;-72
2024/01/28 02:52:07;;;;;;;;;;;-0.50;100.00;;;;;;5046378;28;19932;-72
2024/01/28 02:54:34;;;;;;;;;;;-0.50;100.00;;;;;;5045998;28;19983;-72
2024/01/28 02:57:00;;;;;;;;;;;-0.50;100.00;;;;;;5045510;28;19968;-72
2024/01/28 02:59:27;;;;;;;;;;;-0.50;100.00;;;;;;5046145;28;19959;-72
2024/01/28 03:01:54;;;;;;;;;;;-0.60;100.00;;;;;;5046691;28;19929;-72
2024/01/28 03:04:21;;;;;;;;;;;-0.60;100.00;;;;;;5046885;28;20602;-72
2024/01/28 03:06:48;;;;;;;;;;;-0.50;100.00;;;;;;5040474;28;19929;-72
2024/01/28 03:09:17;;;;;;;;;;;-0.60;100.00;;;;;;5046153;28;19967;-72
2024/01/28 03:11:44;;;;;;;;;;;-0.60;100.00;;;;;;5046602;28;19929;-72
2024/01/28 03:14:10;;;;;;;;;;;-0.60;100.00;;;;;;5045450;28;20572;-72
2024/01/28 03:16:37;;;;;;;;;;;-0.60;100.00;;;;;;5051407;28;20464;-72
2024/01/28 03:19:04;;;;;;;;;;;-0.50;100.00;;;;;;5045432;28;20456;-68
2024/01/28 03:21:31;;;;;;;;;;;-0.60;100.00;;;;;;5042517;28;20396;-68
2024/01/28 03:23:58;;;;;;;;;;;-0.60;100.00;;;;;;5042211;28;19939;-68
2024/01/28 03:26:25;;;;;;;;;;;-0.60;100.00;;;;;;5045112;28;20743;-68
2024/01/28 03:28:53;;;;;;;;;;;-0.70;100.00;;;;;;5045046;28;19950;-68
2024/01/28 03:31:19;;;;;;;;;;;-0.80;100.00;;;;;;5043831;28;19939;-68
2024/01/28 03:33:46;;;;;;;;;;;-0.80;100.00;;;;;;5043823;28;19960;-68
2024/01/28 03:36:13;;;;;;;;;;;-0.80;100.00;;;;;;5045513;28;19929;-68
2024/01/28 03:38:40;;;;;;;;;;;-0.90;100.00;;;;;;5045588;28;19933;-68
2024/01/28 03:41:07;;;;;;;;;;;-0.90;100.00;;;;;;5043673;28;19925;-68
2024/01/28 03:43:34;;;;;;;;;;;-0.90;100.00;;;;;;5044792;28;19929;-68
2024/01/28 03:46:01;;;;;;;;;;;-0.90;100.00;;;;;;5043986;28;19978;-68
2024/01/28 03:48:28;;;;;;;;;;;-0.90;100.00;;;;;;5044420;28;19933;-72
2024/01/28 03:50:55;;;;;;;;;;;-0.90;100.00;;;;;;5045477;28;19928;-72
2024/01/28 03:53:21;;;;;;;;;;;-0.90;100.00;;;;;;5046055;28;19932;-72
2024/01/28 03:55:48;;;;;;;;;;;-0.80;100.00;;;;;;5043041;28;19928;-72
2024/01/28 03:58:15;;;;;;;;;;;-0.90;100.00;;;;;;5037108;28;19966;-72
2024/01/28 04:00:42;;;;;;;;;;;-0.90;100.00;;;;;;5041451;28;20284;-72
2024/01/28 04:03:09;;;;;;;;;;;-0.90;100.00;;;;;;5040077;28;19935;-72
2024/01/28 04:05:36;;;;;;;;;;;-1.00;100.00;;;;;;5042949;28;20421;-72
2024/01/28 04:08:04;;;;;;;;;;;-1.00;100.00;;;;;;5041512;28;19928;-72
2024/01/28 04:10:30;;;;;;;;;;;-1.10;100.00;;;;;;5041240;28;19975;-72
2024/01/28 04:12:57;;;;;;;;;;;-1.10;100.00;;;;;;5040870;28;20030;-68
2024/01/28 04:15:26;;;;;;;;;;;-1.00;100.00;;;;;;5036413;28;20428;-68
2024/01/28 04:17:53;;;;;;;;;;;-1.10;100.00;;;;;;5042992;28;19971;-68
2024/01/28 04:20:20;;;;;;;;;;;-1.00;100.00;;;;;;5042471;28;19940;-68
2024/01/28 04:22:47;;;;;;;;;;;-1.00;100.00;;;;;;5040423;28;20701;-72
2024/01/28 04:25:13;;;;;;;;;;;-1.00;100.00;;;;;;5042609;28;19958;-72
2024/01/28 04:27:40;;;;;;;;;;;-1.00;100.00;;;;;;5042856;28;20552;-72
2024/01/28 04:30:08;;;;;;;;;;;-1.00;100.00;;;;;;5044334;28;19925;-68
2024/01/28 04:32:35;;;;;;;;;;;-1.00;100.00;;;;;;5046294;28;20431;-68
2024/01/28 04:35:02;;;;;;;;;;;-1.00;100.00;;;;;;5045993;28;19971;-68
2024/01/28 04:37:30;;;;;;;;;;;-1.10;100.00;;;;;;5046594;28;19936;-68
2024/01/28 04:39:57;;;;;;;;;;;-1.10;100.00;;;;;;5043495;28;19925;-68
2024/01/28 04:42:24;;;;;;;;;;;-1.10;100.00;;;;;;5045616;28;19933;-68
2024/01/28 04:44:51;;;;;;;;;;;-1.10;100.00;;;;;;5045432;28;20590;-68
2024/01/28 04:47:18;;;;;;;;;;;-1.10;100.00;;;;;;5046988;28;19986;-67
2024/01/28 04:49:45;;;;;;;;;;;-1.10;100.00;;;;;;5045560;28;19928;-68
2024/01/28 04:52:13;;;;;;;;;;;-1.10;100.00;;;;;;5044055;28;20015;-68
2024/01/28 04:54:39;;;;;;;;;;;-1.10;100.00;;;;;;5045401;28;20510;-68
2024/01/28 04:57:06;;;;;;;;;;;-1.10;100.00;;;;;;5045683;28;20412;-68
2024/01/28 04:59:33;;;;;;;;;;;-1.10;100.00;;;;;;5046050;28;19928;-68
2024/01/28 05:02:00;;;;;;;;;;;-1.20;100.00;;;;;;5046195;28;19940;-68
2024/01/28 05:04:27;;;;;;;;;;;-1.20;100.00;;;;;;5044853;28;19982;-68
2024/01/28 05:06:54;;;;;;;;;;;-1.30;100.00;;;;;;5045000;28;20671;-68
2024/01/28 05:09:21;;;;;;;;;;;-1.30;100.00;;;;;;5044176;28;20601;-68
2024/01/28 05:11:49;;;;;;;;;;;-1.30;100.00;;;;;;5045065;28;20429;-68
2024/01/28 05:14:16;;;;;;;;;;;-1.40;100.00;;;;;;5045500;28;19971;-68
2024/01/28 05:16:47;;;;;;;;;;;-1.40;100.00;;;;;;5045276;28;19936;-68
2024/01/28 05:19:14;;;;;;;;;;;-1.40;100.00;;;;;;5045881;28;19935;-68
2024/01/28 05:21:41;;;;;;;;;;;-1.40;100.00;;;;;;5043235;28;19983;-68
2024/01/28 05:24:08;;;;;;;;;;;-1.40;100.00;;;;;;5045402;28;20019;-72
2024/01/28 05:26:37;;;;;;;;;;;-1.40;100.00;;;;;;5045220;28;20340;-72
2024/01/28 05:29:05;;;;;;;;;;;-1.40;100.00;;;;;;5044814;28;19936;-72
2024/01/28 05:31:32;;;;;;;;;;;-1.40;100.00;;;;;;5043412;28;19933;-72
2024/01/28 05:34:00;;;;;;;;;;;-1.40;100.00;;;;;;5042847;28;19972;-72
2024/01/28 05:36:28;;;;;;;;;;;-1.40;100.00;;;;;;5043385;28;20015;-72
2024/01/28 05:38:56;;;;;;;;;;;-1.40;100.00;;;;;;5042986;28;19932;-72
2024/01/28 05:41:22;;;;;;;;;;;-1.40;100.00;;;;;;5045090;28;19929;-72
2024/01/28 05:43:49;;;;;;;;;;;-1.40;100.00;;;;;;5046012;28;19928;-72
2024/01/28 05:46:16;;;;;;;;;;;-1.40;100.00;;;;;;5044971;28;19929;-72
2024/01/28 05:48:43;;;;;;;;;;;-1.50;100.00;;;;;;5044754;28;19932;-72
2024/01/28 05:51:10;;;;;;;;;;;-1.50;100.00;;;;;;5044769;28;20850;-72
2024/01/28 05:53:37;;;;;;;;;;;-1.50;100.00;;;;;;5045568;28;19995;-72
2024/01/28 05:56:04;;;;;;;;;;;-1.50;100.00;;;;;;5043972;28;20361;-72
2024/01/28 05:58:31;;;;;;;;;;;-1.60;100.00;;;;;;5043591;28;19982;-72
2024/01/28 06:01:05;;;;;;;;;;;-1.60;100.00;;;;;;5045348;28;19932;-72
2024/01/28 06:03:33;;;;;;;;;;;-1.70;100.00;;;;;;5038303;28;20273;-73
2024/01/28 06:06:01;;;;;;;;;;;-1.70;100.00;;;;;;5044493;28;19940;-72
2024/01/28 06:08:29;;;;;;;;;;;-1.70;100.00;;;;;;5045120;28;19928;-70
2024/01/28 06:10:56;;;;;;;;;;;-1.80;100.00;;;;;;5044694;28;20007;-71
2024/01/28 06:13:22;;;;;;;;;;;-1.80;100.00;;;;;;5045406;28;19929;-71
2024/01/28 06:15:51;;;;;;;;;;;-1.80;100.00;;;;;;5043507;28;20606;-71
2024/01/28 06:18:19;;;;;;;;;;;-1.80;100.00;;;;;;5042180;28;20020;-71
2024/01/28 06:20:46;;;;;;;;;;;-1.80;100.00;;;;;;5044757;28;19929;-71
2024/01/28 06:23:13;;;;;;;;;;;-1.80;100.00;;;;;;5044972;28;20358;-71
2024/01/28 06:25:40;;;;;;;;;;;-1.90;100.00;;;;;;5044267;28;19929;-71
2024/01/28 06:28:06;;;;;;;;;;;-1.90;100.00;;;;;;5044551;28;19929;-70
2024/01/28 06:30:35;;;;;;;;;;;-1.90;100.00;;;;;;5043535;28;19998;-70
2024/01/28 06:33:04;;;;;;;;;;;-2.00;100.00;;;;;;5044514;28;19982;-70
2024/01/28 06:35:32;;;;;;;;;;;-2.00;100.00;;;;;;5044326;28;19935;-72
2024/01/28 06:37:58;;;;;;;;;;;-2.00;100.00;;;;;;5043905;28;19929;-74
2024/01/28 06:40:25;;;;;;;;;;;-2.00;100.00;;;;;;5038040;28;19929;-72
2024/01/28 06:42:52;;;;;;;;;;;-2.10;100.00;;;;;;5042942;28;19962;-72
2024/01/28 06:45:19;;;;;;;;;;;-2.10;100.00;;;;;;5044412;28;20003;-72
2024/01/28 06:47:46;;;;;;;;;;;-2.00;100.00;;;;;;5042612;28;19932;-72
2024/01/28 06:50:13;;;;;;;;;;;-2.10;100.00;;;;;;5044511;28;19937;-72
2024/01/28 06:52:41;;;;;;;;;;;-2.10;100.00;;;;;;5043765;28;19929;-72
2024/01/28 06:55:08;;;;;;;;;;;-2.00;100.00;;;;;;5044426;28;20565;-72
2024/01/28 06:57:35;;;;;;;;;;;-2.00;100.00;;;;;;5043078;28;19933;-72
2024/01/28 07:00:04;;;;;;;;;;;-2.00;100.00;;;;;;5039768;28;20372;-73
2024/01/28 07:02:32;;;;;;;;;;;-2.00;100.00;;;;;;5042036;28;19937;-72
2024/01/28 07:04:59;;;;;;;;;;;-2.10;100.00;;;;;;5044237;28;20379;-72
2024/01/28 07:07:26;;;;;;;;;;;-2.10;100.00;;;;;;5038501;28;20478;-72
2024/01/28 07:09:53;;;;;;;;;;;-2.10;100.00;;;;;;5044605;28;20350;-73
2024/01/28 07:12:21;;;;;;;;;;;-2.00;100.00;;;;;;5043779;28;19948;-72
2024/01/28 07:14:48;;;;;;;;;;;-2.00;100.00;;;;;;5044112;28;19933;-73
2024/01/28 07:17:14;;;;;;;;;;;-2.00;100.00;;;;;;5043650;28;19989;-73
2024/01/28 07:19:42;;;;;;;;;;;-1.90;100.00;;;;;;5045035;28;19929;-73
2024/01/28 07:22:11;;;;;;;;;;;-1.90;100.00;;;;;;5043452;28;20341;-73
2024/01/28 07:24:38;;;;;;;;;;;-1.80;100.00;;;;;;5044132;28;20041;-72
2024/01/28 07:27:05;;;;;;;;;;;-1.70;100.00;;;;;;5044200;28;19929;-73
2024/01/28 07:29:32;;;;;;;;;;;-1.70;100.00;;;;;;5044551;28;19960;-73
2024/01/28 07:31:59;;;;;;;;;;;-1.60;100.00;;;;;;5044064;28;19940;-73
2024/01/28 07:34:26;;;;;;;;;;;-1.60;100.00;;;;;;5042402;28;19960;-73
2024/01/28 07:36:54;;;;;;;;;;;-1.60;100.00;;;;;;5042786;28;19929;-73
2024/01/28 07:39:21;;;;;;;;;;;-1.50;100.00;;;;;;5037840;28;20029;-73
2024/01/28 07:41:48;;;;;;;;;;;-1.50;100.00;;;;;;5043805;28;19983;-72
2024/01/28 07:44:15;;;;;;;;;;;-1.40;100.00;;;;;;5044156;28;20610;-73
2024/01/28 07:46:42;;;;;;;;;;;-1.40;100.00;;;;;;5042700;28;20675;-73
2024/01/28 07:49:08;;;;;;;;;;;-1.30;100.00;;;;;;5043498;28;19998;-72
2024/01/28 07:51:36;;;;;;;;;;;-1.30;100.00;;;;;;5041835;28;19929;-72
2024/01/28 07:54:03;;;;;;;;;;;-1.30;100.00;;;;;;5069083;28;19939;-72
2024/01/28 07:56:29;;;;;;;;;;;-1.30;100.00;;;;;;5043508;28;19933;-73
2024/01/28 07:58:56;;;;;;;;;;;-1.20;100.00;;;;;;5044096;28;20459;-73
2024/01/28 08:01:23;;;;;;;;;;;-1.20;100.00;;;;;;5043810;28;20563;-72
2024/01/28 08:03:50;;;;;;;;;;;-1.20;100.00;;;;;;5045057;28;20024;-72
2024/01/28 08:06:17;;;;;;;;;;;-1.10;100.00;;;;;;5049326;28;20020;-72
2024/01/28 08:08:44;;;;;;;;;;;-1.10;100.00;;;;;;5048563;28;19928;-72
2024/01/28 08:11:10;;;;;;;;;;;-1.10;100.00;;;;;;5047768;28;19976;-72
2024/01/28 08:13:37;;;;;;;;;;;-1.10;100.00;;;;;;5047950;28;19928;-72
2024/01/28 08:16:04;;;;;;;;;;;-1.10;100.00;;;;;;5049568;28;19978;-72
2024/01/28 08:18:31;;;;;;;;;;;-1.00;100.00;;;;;;5049853;28;20054;-72
2024/01/28 08:20:58;;;;;;;;;;;-1.00;100.00;;;;;;5046172;28;19975;-72
2024/01/28 08:23:29;;;;;;;;;;;-0.90;100.00;;;;;;5039259;28;20025;-72
2024/01/28 08:25:55;;;;;;;;;;;-0.90;100.00;;;;;;5044397;28;20615;-73
2024/01/28 08:28:22;;;;;;;;;;;-0.80;100.00;;;;;;5047414;28;19940;-72
2024/01/28 08:30:49;;;;;;;;;;;-0.80;100.00;;;;;;5079277;28;19932;-73
2024/01/28 08:33:16;;;;;;;;;;;-0.80;100.00;;;;;;5047442;28;19929;-72
2024/01/28 08:35:43;;;;;;;;;;;-0.80;100.00;;;;;;5044612;28;19928;-67
2024/01/28 08:38:10;;;;;;;;;;;-0.70;100.00;;;;;;5045305;28;19935;-68
2024/01/28 08:40:40;;;;;;;;;;;-0.70;100.00;;;;;;5042459;28;19936;-67
2024/01/28 08:43:08;;;;;;;;;;;-0.60;100.00;;;;;;5043630;28;19933;-67
2024/01/28 08:45:36;;;;;;;;;;;-0.50;100.00;;;;;;5045674;28;19928;-65
2024/01/28 08:48:03;;;;;;;;;;;-0.50;100.00;;;;;;5045107;28;19947;-67
2024/01/28 08:50:30;;;;;;;;;;;-0.40;100.00;;;;;;5041683;28;19929;-70
2024/01/28 08:52:57;;;;;;;;;;;-0.30;100.00;;;;;;5041781;28;19939;-67
2024/01/28 08:55:24;;;;;;;;;;;-0.30;100.00;;;;;;5043703;28;20006;-67
2024/01/28 08:57:50;;;;;;;;;;;-0.20;100.00;;;;;;5044724;28;20404;-67
2024/01/28 09:00:18;;;;;;;;;;;-0.10;100.00;;;;;;5045429;28;19929;-67
2024/01/28 09:02:44;;;;;;;;;;;0.00;100.00;;;;;;5043470;28;19929;-66
2024/01/28 09:05:11;;;;;;;;;;;0.00;100.00;;;;;;5046022;28;19983;-66
2024/01/28 09:07:39;;;;;;;;;;;0.10;100.00;;;;;;5045035;28;19939;-68
2024/01/28 09:10:07;;;;;;;;;;;0.20;100.00;;;;;;5045051;28;19928;-68
2024/01/28 09:12:34;;;;;;;;;;;0.20;100.00;;;;;;5045264;28;19929;-69
2024/01/28 09:15:00;;;;;;;;;;;0.40;100.00;;;;;;5045202;28;20011;-65
2024/01/28 09:17:27;;;;;;;;;;;0.50;100.00;;;;;;5038584;28;19935;-66
2024/01/28 09:19:55;;;;;;;;;;;0.70;100.00;;;;;;5043780;28;20344;-66
2024/01/28 09:22:22;;;;;;;;;;;0.80;100.00;;;;;;5044261;28;19933;-67
2024/01/28 09:24:49;;;;;;;;;;;0.90;100.00;;;;;;5044666;28;19936;-65
2024/01/28 09:27:17;;;;;;;;;;;1.00;100.00;;;;;;5044393;28;19929;-66
2024/01/28 09:29:44;;;;;;;;;;;1.10;100.00;;;;;;5040934;28;19959;-66
2024/01/28 09:32:11;;;;;;;;;;;1.20;100.00;;;;;;5044848;28;19929;-68
2024/01/28 09:34:37;;;;;;;;;;;1.30;100.00;;;;;;5043071;28;19940;-68
2024/01/28 09:37:07;;;;;;;;;;;1.40;100.00;;;;;;5044240;28;20012;-65
2024/01/28 09:39:34;;;;;;;;;;;1.50;100.00;;;;;;5043496;28;19932;-65
2024/01/28 09:42:10;;;;;;;;;;;1.70;100.00;;;;;;5043962;28;19929;-65
2024/01/28 09:44:37;;;;;;;;;;;1.80;100.00;;;;;;5038274;28;19929;-68
2024/01/28 09:47:04;;;;;;;;;;;2.00;100.00;;;;;;5043668;28;20667;-71
2024/01/28 09:49:39;;;;;;;;;;;2.10;100.00;;;;;;5045098;28;19980;-69
2024/01/28 09:52:10;;;;;;;;;;;2.20;100.00;;;;;;5045076;28;20680;-68
2024/01/28 09:54:37;;;;;;;;;;;2.20;100.00;;;;;;5045393;28;19929;-66
2024/01/28 09:57:05;;;;;;;;;;;2.40;100.00;;;;;;5041609;28;19964;-66
2024/01/28 09:59:36;;;;;;;;;;;2.60;100.00;;;;;;5045306;28;19929;-66
2024/01/28 10:02:03;;;;;;;;;;;2.60;100.00;;;;;;5041985;28;19929;-66
2024/01/28 10:04:30;;;;;;;;;;;2.70;100.00;;;;;;5042356;28;20739;-66
2024/01/28 10:06:59;;;;;;;;;;;2.70;100.00;;;;;;5044136;28;19928;-67
2024/01/28 10:09:27;;;;;;;;;;;2.80;100.00;;;;;;5040760;28;19935;-67
2024/01/28 10:11:56;;;;;;;;;;;2.90;100.00;;;;;;5041596;28;20019;-67
2024/01/28 10:14:23;;;;;;;;;;;3.10;100.00;;;;;;5043912;28;20035;-67
2024/01/28 10:16:50;;;;;;;;;;;3.20;100.00;;;;;;5044474;28;19939;-67
2024/01/28 10:19:17;;;;;;;;;;;3.30;100.00;;;;;;5041858;28;20002;-67
2024/01/28 10:21:44;;;;;;;;;;;3.40;100.00;;;;;;5044360;28;19929;-67
2024/01/28 10:24:12;;;;;;;;;;;3.60;100.00;;;;;;5042684;28;19928;-67
2024/01/28 10:26:38;;;;;;;;;;;3.70;100.00;;;;;;5039788;28;20024;-67
2024/01/28 10:29:07;;;;;;;;;;;3.90;100.00;;;;;;5044319;28;19928;-66
2024/01/28 10:31:34;;;;;;;;;;;4.10;100.00;;;;;;5042483;28;20000;-67
2024/01/28 10:34:01;;;;;;;;;;;4.20;100.00;;;;;;5043168;28;20274;-67
2024/01/28 10:36:29;;;;;;;;;;;4.30;100.00;;;;;;5030190;28;19937;-67
2024/01/28 10:39:03;;;;;;;;;;;4.40;100.00;;;;;;5041821;28;19936;-67
2024/01/28 10:41:33;;;;;;;;;;;4.70;100.00;;;;;;5043749;28;19963;-71
2024/01/28 10:44:07;;;;;;;;;;;4.90;100.00;;;;;;5041579;28;19988;-71
2024/01/28 10:46:41;;;;;;;;;;;5.30;100.00;;;;;;5038005;28;19933;-70
2024/01/28 10:49:09;;;;;;;;;;;5.50;100.00;;;;;;5041592;28;20645;-70
2024/01/28 10:51:38;;;;;;;;;;;5.70;100.00;;;;;;5074892;28;20050;-70
2024/01/28 10:54:07;;;;;;;;;;;6.00;100.00;;;;;;5040559;28;19929;-70
2024/01/28 10:56:38;;;;;;;;;;;6.30;100.00;;;;;;5067267;28;20333;-71
2024/01/28 10:59:05;;;;;;;;;;;6.50;100.00;;;;;;5037357;28;20055;-70
2024/01/28 11:01:33;;;;;;;;;;;6.70;100.00;;;;;;5043561;28;19998;-67
2024/01/28 11:04:01;;;;;;;;;;;7.50;100.00;;;;;;5043147;28;19990;-68
2024/01/28 11:06:31;;;;;;;;;;;8.40;100.00;;;;;;5041382;28;19929;-67
2024/01/28 11:08:58;;;;;;;;;;;8.50;100.00;;;;;;5038977;28;19932;-68
2024/01/28 11:11:25;;;;;;;;;;;8.30;100.00;;;;;;5043302;28;19952;-68
2024/01/28 11:13:52;;;;;;;;;;;8.00;100.00;;;;;;5043928;28;19967;-68
2024/01/28 11:16:19;;;;;;;;;;;7.30;100.00;;;;;;5043309;28;19951;-67
2024/01/28 11:18:56;;;;;;;;;;;7.10;100.00;;;;;;5043648;28;19929;-68
2024/01/28 11:21:24;;;;;;;;;;;7.00;100.00;;;;;;5042637;28;19944;-68
2024/01/28 11:23:52;;;;;;;;;;;6.80;100.00;;;;;;5043504;28;20062;-68
2024/01/28 11:26:19;;;;;;;;;;;7.00;100.00;;;;;;5040250;28;19931;-68
2024/01/28 11:28:50;;;;;;;;;;;7.30;100.00;;;;;;5043000;28;19935;-68
2024/01/28 11:31:29;;;;;;;;;;;7.30;100.00;;;;;;5043141;28;19936;-68
2024/01/28 11:34:06;;;;;;;;;;;7.20;100.00;;;;;;5038539;28;19932;-68
2024/01/28 11:36:35;;;;;;;;;;;7.30;100.00;;;;;;5039061;28;20503;-67
2024/01/28 11:39:05;;;;;;;;;;;7.40;100.00;;;;;;5040721;28;19928;-67
2024/01/28 11:41:36;;;;;;;;;;;7.50;100.00;;;;;;5040283;28;19960;-67
2024/01/28 11:44:04;;;;;;;;;;;7.90;100.00;;;;;;5042193;28;19944;-67
2024/01/28 11:46:31;;;;;;;;;;;7.80;100.00;;;;;;5043681;28;19935;-68
2024/01/28 11:48:58;;;;;;;;;;;8.20;100.00;;;;;;5040326;28;19969;-68
2024/01/28 11:51:32;;;;;;;;;;;8.30;100.00;;;;;;5043279;28;20666;-67
2024/01/28 11:54:00;;;;;;;;;;;8.40;100.00;;;;;;5036089;28;20638;-67
2024/01/28 11:56:30;;;;;;;;;;;8.40;100.00;;;;;;5035610;28;20075;-67
2024/01/28 11:58:57;;;;;;;;;;;8.50;100.00;;;;;;5035492;28;19991;-67
2024/01/28 12:01:24;;;;;;;;;;;8.30;100.00;;;;;;5033938;28;19976;-67
2024/01/28 12:03:54;;;;;;;;;;;8.30;100.00;;;;;;5034913;28;20075;-67
2024/01/28 12:06:22;;;;;;;;;;;8.10;100.00;;;;;;5035251;28;19932;-67
2024/01/28 12:08:49;;;;;;;;;;;7.90;100.00;;;;;;5034527;28;19955;-67
2024/01/28 12:11:20;;;;;;;;;;;8.30;100.00;;;;;;5036003;28;19940;-68
2024/01/28 12:13:48;;;;;;;;;;;8.60;100.00;;;;;;5035956;28;20380;-67
2024/01/28 12:16:19;;;;;;;;;;;8.50;100.00;;;;;;5033973;28;19940;-66
2024/01/28 12:18:46;;;;;;;;;;;8.70;100.00;;;;;;5035114;28;19937;-65
2024/01/28 12:21:17;;;;;;;;;;;9.10;100.00;;;;;;5034951;28;20435;-66
2024/01/28 12:23:48;;;;;;;;;;;9.50;100.00;;;;;;5036410;28;20212;-66
2024/01/28 12:26:15;;;;;;;;;;;9.90;100.00;;;;;;5067353;28;20019;-67
2024/01/28 12:28:45;;;;;;;;;;;10.90;92.60;;;;;;5034309;28;19929;-67
2024/01/28 12:31:13;;;;;;;;;;;11.10;88.70;;;;;;5035256;28;19936;-68
2024/01/28 12:33:39;;;;;;;;;;;11.30;91.20;;;;;;5037176;28;20022;-67
2024/01/28 12:36:06;;;;;;;;;;;11.00;86.30;;;;;;5037308;28;20396;-67
2024/01/28 12:38:33;;;;;;;;;;;10.80;88.50;;;;;;5037234;28;20027;-68
2024/01/28 12:41:00;;;;;;;;;;;10.90;88.50;;;;;;5036235;28;19964;-68
2024/01/28 12:43:27;;;;;;;;;;;10.60;85.40;;;;;;5037802;28;19960;-66
2024/01/28 12:45:53;;;;;;;;;;;10.30;86.60;;;;;;5037585;28;19988;-69
2024/01/28 12:48:20;;;;;;;;;;;10.20;92.30;;;;;;5037738;28;19964;-69
2024/01/28 12:50:47;;;;;;;;;;;10.50;91.00;;;;;;5037763;28;20535;-68
2024/01/28 12:53:14;;;;;;;;;;;10.60;89.80;;;;;;5040802;28;19957;-68
2024/01/28 12:55:41;;;;;;;;;;;10.90;88.50;;;;;;5041037;28;20464;-68
2024/01/28 12:58:08;;;;;;;;;;;11.50;83.50;;;;;;5040290;28;19932;-68
2024/01/28 13:00:34;;;;;;;;;;;12.20;77.30;;;;;;5040751;28;20427;-68
2024/01/28 13:03:02;;;;;;;;;;;13.60;70.70;;;;;;5039944;28;20480;-69
2024/01/28 13:05:29;;;;;;;;;;;15.00;66.20;;;;;;5039806;28;19986;-68
2024/01/28 13:07:58;;;;;;;;;;;16.00;59.80;;;;;;5039377;28;20150;-69
2024/01/28 13:10:25;;;;;;;;;;;16.10;58.60;;;;;;5040352;28;20473;-69
2024/01/28 13:12:52;;;;;;;;;;;16.50;54.70;;;;;;5039247;28;19929;-71
2024/01/28 13:15:19;;;;;;;;;;;16.90;53.90;;;;;;5040668;28;19939;-70
2024/01/28 13:17:46;;;;;;;;;;;17.60;50.80;;;;;;5040875;28;19940;-68
2024/01/28 13:20:13;;;;;;;;;;;17.10;50.70;;;;;;5041061;28;19939;-68
2024/01/28 13:22:41;;;;;;;;;;;18.10;47.80;;;;;;5041112;28;19951;-67
2024/01/28 13:25:12;;;;;;;;;;;18.60;47.60;;;;;;5040750;28;19972;-69
2024/01/28 13:27:39;;;;;;;;;;;18.80;46.80;;;;;;5038344;28;19936;-69
2024/01/28 13:30:07;;;;;;;;;;;18.60;45.40;;;;;;5040418;28;19933;-69
2024/01/28 13:32:37;;;;;;;;;;;17.50;45.40;;;;;;5041001;28;20533;-69
2024/01/28 13:35:09;;;;;;;;;;;16.20;46.90;;;;;;5039998;28;20022;-69
2024/01/28 13:37:37;;;;;;;;;;;14.70;49.00;;;;;;5038823;28;20297;-68
2024/01/28 13:40:04;;;;;;;;;;;13.80;51.50;;;;;;5040036;28;20412;-68
2024/01/28 13:42:31;;;;;;;;;;;12.90;54.90;;;;;;5038062;28;19933;-68
2024/01/28 13:44:58;;;;;;;;;;;12.60;57.70;;;;;;5039281;28;19933;-69
2024/01/28 13:47:25;;;;;;;;;;;13.10;57.40;;;;;;5039672;28;20309;-68
2024/01/28 13:49:52;;;;;;;;;;;13.10;55.30;;;;;;5039992;28;19933;-67
2024/01/28 13:52:19;;;;;;;;;;;12.60;56.50;;;;;;5040605;28;19932;-68
2024/01/28 13:54:46;;;;;;;;;;;12.30;56.90;;;;;;5039454;28;20019;-69
2024/01/28 13:57:13;;;;;;;;;;;11.90;58.30;;;;;;5039554;28;19936;-69
2024/01/28 13:59:40;;;;;;;;;;;11.70;61.30;;;;;;5040328;28;19933;-69
2024/01/28 14:02:06;;;;;;;;;;;12.00;58.90;;;;;;5052805;28;20037;-68
2024/01/28 14:04:33;;;;;;;;;;;12.00;58.20;;;;;;5038997;28;20683;-69
2024/01/28 14:07:00;;;;;;;;;;;11.80;59.30;;;;;;5040028;28;19933;-70
2024/01/28 14:09:27;;;;;;;;;;;11.50;58.80;;;;;;5040524;28;19932;-70
2024/01/28 14:11:54;;;;;;;;;;;11.20;60.00;;;;;;5039550;28;19940;-70